createdAt,value
2018-07-14T00:00:15.474Z,57.73
2018-07-14T00:01:15.353Z,57.8
2018-07-14T00:02:15.480Z,57.77
2018-07-14T00:03:15.282Z,57.74
2018-07-14T00:04:15.396Z,57.75
2018-07-14T00:05:15.668Z,57.77
2018-07-14T00:06:15.412Z,57.77
2018-07-14T00:07:15.528Z,57.76
2018-07-14T00:08:15.534Z,57.78
2018-07-14T00:09:15.643Z,57.74
2018-07-14T00:10:15.512Z,57.74
2018-07-14T00:11:15.268Z,57.79
2018-07-14T00:12:15.320Z,57.75
2018-07-14T00:13:15.397Z,57.8
2018-07-14T00:14:15.551Z,57.8
2018-07-14T00:15:15.485Z,57.78
2018-07-14T00:16:15.363Z,57.78
2018-07-14T00:17:15.646Z,57.74
2018-07-14T00:18:15.507Z,57.76
2018-07-14T00:19:15.496Z,57.77
2018-07-14T00:20:15.407Z,57.79
2018-07-14T00:21:15.312Z,57.8
2018-07-14T00:22:15.420Z,57.78
2018-07-14T00:23:15.327Z,57.77
2018-07-14T00:24:15.712Z,57.75
2018-07-14T00:25:15.508Z,57.75
2018-07-14T00:26:15.376Z,57.76
2018-07-14T00:27:15.405Z,57.76
2018-07-14T00:28:15.389Z,57.77
2018-07-14T00:29:15.404Z,57.78
2018-07-14T00:30:15.250Z,57.79
2018-07-14T00:31:15.371Z,57.75
2018-07-14T00:32:15.618Z,57.77
2018-07-14T00:33:15.414Z,57.76
2018-07-14T00:34:15.403Z,57.78
2018-07-14T00:35:15.291Z,57.77
2018-07-14T00:36:15.436Z,57.76
2018-07-14T00:37:15.567Z,57.76
2018-07-14T00:38:15.480Z,57.77
2018-07-14T00:39:15.275Z,57.77
2018-07-14T00:40:15.573Z,57.78
2018-07-14T00:41:15.452Z,57.72
2018-07-14T00:42:15.264Z,57.76
2018-07-14T00:43:15.434Z,57.72
2018-07-14T00:44:15.287Z,57.81
2018-07-14T00:45:15.319Z,57.82
2018-07-14T00:46:15.625Z,57.78
2018-07-14T00:47:15.309Z,57.77
2018-07-14T00:48:15.267Z,57.75
2018-07-14T00:49:15.423Z,57.74
2018-07-14T00:50:15.331Z,57.77
2018-07-14T00:51:15.311Z,57.75
2018-07-14T00:52:15.466Z,57.8
2018-07-14T00:53:15.310Z,57.81
2018-07-14T00:54:15.392Z,57.81
2018-07-14T00:55:15.265Z,57.77
2018-07-14T00:56:15.399Z,57.77
2018-07-14T00:57:15.220Z,57.76
2018-07-14T00:58:15.337Z,57.76
2018-07-14T00:59:15.468Z,57.79
2018-07-14T01:00:15.410Z,57.8
2018-07-14T01:01:15.431Z,57.77
2018-07-14T01:02:15.426Z,57.8
2018-07-14T01:03:15.414Z,57.78
2018-07-14T01:04:15.386Z,57.8
2018-07-14T01:05:15.553Z,57.8
2018-07-14T01:06:15.228Z,57.79
2018-07-14T01:07:15.328Z,57.77
2018-07-14T01:08:15.372Z,57.78
2018-07-14T01:09:15.454Z,57.81
2018-07-14T01:10:15.362Z,57.8
2018-07-14T01:11:15.296Z,57.8
2018-07-14T01:12:15.517Z,57.83
2018-07-14T01:13:15.529Z,57.78
2018-07-14T01:14:15.389Z,57.8
2018-07-14T01:15:15.262Z,57.78
2018-07-14T01:16:15.453Z,57.8
2018-07-14T01:17:15.485Z,57.83
2018-07-14T01:18:15.341Z,57.78
2018-07-14T01:19:15.356Z,57.81
2018-07-14T01:20:15.469Z,57.78
2018-07-14T01:21:15.519Z,57.84
2018-07-14T01:22:15.326Z,57.84
2018-07-14T01:23:46.682Z,57.8
2018-07-14T01:24:15.461Z,57.81
2018-07-14T01:25:15.403Z,57.84
2018-07-14T01:26:15.273Z,57.81
2018-07-14T01:27:15.472Z,57.8
2018-07-14T01:28:15.338Z,57.81
2018-07-14T01:29:15.780Z,57.83
2018-07-14T01:30:15.408Z,57.8
2018-07-14T01:31:15.402Z,57.81
2018-07-14T01:32:15.441Z,57.79
2018-07-14T01:33:15.538Z,57.83
2018-07-14T01:34:15.297Z,57.84
2018-07-14T01:35:15.240Z,57.81
2018-07-14T01:36:15.316Z,57.81
2018-07-14T01:37:15.304Z,57.78
2018-07-14T01:38:15.249Z,57.82
2018-07-14T01:39:15.417Z,57.81
2018-07-14T01:40:15.511Z,57.81
2018-07-14T01:41:15.358Z,57.8
2018-07-14T01:42:15.489Z,57.8
2018-07-14T01:43:15.556Z,57.82
2018-07-14T01:44:15.635Z,57.81
2018-07-14T01:45:15.546Z,57.81
2018-07-14T01:46:25.607Z,57.82
2018-07-14T01:47:15.377Z,57.81
2018-07-14T01:48:15.299Z,57.81
2018-07-14T01:49:15.370Z,57.81
2018-07-14T01:50:15.511Z,57.84
2018-07-14T01:51:15.216Z,57.83
2018-07-14T01:52:15.324Z,57.79
2018-07-14T01:53:15.478Z,57.8
2018-07-14T01:54:15.321Z,57.8
2018-07-14T01:55:15.607Z,57.8
2018-07-14T01:56:15.359Z,57.83
2018-07-14T01:57:15.439Z,57.82
2018-07-14T01:58:15.299Z,57.82
2018-07-14T01:59:15.317Z,57.82
2018-07-14T02:00:15.297Z,57.82
2018-07-14T02:01:15.302Z,57.78
2018-07-14T02:02:15.385Z,57.82
2018-07-14T02:03:15.496Z,57.84
2018-07-14T02:04:15.371Z,57.8
2018-07-14T02:05:15.414Z,57.79
2018-07-14T02:06:15.375Z,57.83
2018-07-14T02:07:15.557Z,57.78
2018-07-14T02:08:15.423Z,57.84
2018-07-14T02:09:15.466Z,57.82
2018-07-14T02:10:15.366Z,57.85
2018-07-14T02:11:15.161Z,57.81
2018-07-14T02:12:15.465Z,57.81
2018-07-14T02:13:15.323Z,57.83
2018-07-14T02:14:15.436Z,57.79
2018-07-14T02:15:15.365Z,57.79
2018-07-14T02:16:15.531Z,57.81
2018-07-14T02:17:15.553Z,57.82
2018-07-14T02:18:15.382Z,57.8
2018-07-14T02:19:15.286Z,57.82
2018-07-14T02:20:15.220Z,57.81
2018-07-14T02:21:15.447Z,57.83
2018-07-14T02:22:15.513Z,57.84
2018-07-14T02:23:15.380Z,57.81
2018-07-14T02:24:15.334Z,57.83
2018-07-14T02:25:15.478Z,57.81
2018-07-14T02:26:15.412Z,57.81
2018-07-14T02:27:15.331Z,57.82
2018-07-14T02:28:15.533Z,57.84
2018-07-14T02:29:15.520Z,57.82
2018-07-14T02:30:15.623Z,57.82
2018-07-14T02:31:15.196Z,57.83
2018-07-14T02:32:15.384Z,57.81
2018-07-14T02:33:15.429Z,57.83
2018-07-14T02:34:15.404Z,57.84
2018-07-14T02:35:15.424Z,57.82
2018-07-14T02:36:15.476Z,57.83
2018-07-14T02:37:15.462Z,57.84
2018-07-14T02:38:15.513Z,57.83
2018-07-14T02:39:15.542Z,57.83
2018-07-14T02:40:15.244Z,57.82
2018-07-14T02:41:15.754Z,57.82
2018-07-14T02:42:15.364Z,57.83
2018-07-14T02:43:15.510Z,57.8
2018-07-14T02:44:15.309Z,57.81
2018-07-14T02:45:15.413Z,57.82
2018-07-14T02:46:15.353Z,57.8
2018-07-14T02:47:15.254Z,57.8
2018-07-14T02:48:15.390Z,57.8
2018-07-14T02:49:15.471Z,57.8
2018-07-14T02:50:15.751Z,57.82
2018-07-14T02:51:15.427Z,57.78
2018-07-14T02:52:15.575Z,57.82
2018-07-14T02:53:15.288Z,57.82
2018-07-14T02:54:15.368Z,57.81
2018-07-14T02:55:15.363Z,57.84
2018-07-14T02:56:15.515Z,57.83
2018-07-14T02:57:15.358Z,57.82
2018-07-14T02:58:15.204Z,57.83
2018-07-14T02:59:15.345Z,57.82
2018-07-14T03:00:15.342Z,57.81
2018-07-14T03:01:15.327Z,57.85
2018-07-14T03:02:15.344Z,57.84
2018-07-14T03:03:15.449Z,57.8
2018-07-14T03:04:15.500Z,57.8
2018-07-14T03:05:15.524Z,57.82
2018-07-14T03:06:15.441Z,57.8
2018-07-14T03:07:15.434Z,57.82
2018-07-14T03:08:15.374Z,57.83
2018-07-14T03:09:15.401Z,57.83
2018-07-14T03:10:15.385Z,57.83
2018-07-14T03:11:15.389Z,57.83
2018-07-14T03:12:15.431Z,57.83
2018-07-14T03:13:15.806Z,57.8
2018-07-14T03:14:15.354Z,57.83
2018-07-14T03:15:15.494Z,57.85
2018-07-14T03:16:15.519Z,57.85
2018-07-14T03:17:15.408Z,57.84
2018-07-14T03:18:15.368Z,57.82
2018-07-14T03:19:15.888Z,57.83
2018-07-14T03:20:15.326Z,57.85
2018-07-14T03:21:15.489Z,57.87
2018-07-14T03:22:15.580Z,57.84
2018-07-14T03:23:15.327Z,57.81
2018-07-14T03:24:15.432Z,57.83
2018-07-14T03:25:15.240Z,57.83
2018-07-14T03:26:15.844Z,57.82
2018-07-14T03:27:15.338Z,57.85
2018-07-14T03:28:15.380Z,57.84
2018-07-14T03:29:15.151Z,57.82
2018-07-14T03:30:15.494Z,57.82
2018-07-14T03:31:15.385Z,57.81
2018-07-14T03:32:15.384Z,57.8
2018-07-14T03:33:15.868Z,57.82
2018-07-14T03:34:15.294Z,57.82
2018-07-14T03:35:15.323Z,57.84
2018-07-14T03:36:15.426Z,57.84
2018-07-14T03:37:15.388Z,57.8
2018-07-14T03:38:15.239Z,57.83
2018-07-14T03:39:15.243Z,57.82
2018-07-14T03:40:15.460Z,57.84
2018-07-14T03:41:15.259Z,57.81
2018-07-14T03:42:15.403Z,57.85
2018-07-14T03:43:15.484Z,57.84
2018-07-14T03:44:15.522Z,57.85
2018-07-14T03:45:15.379Z,57.81
2018-07-14T03:46:15.269Z,57.84
2018-07-14T03:47:15.202Z,57.82
2018-07-14T03:48:15.258Z,57.85
2018-07-14T03:49:15.482Z,57.85
2018-07-14T03:50:15.344Z,57.84
2018-07-14T03:51:15.383Z,57.87
2018-07-14T03:52:15.246Z,57.86
2018-07-14T03:53:15.471Z,57.82
2018-07-14T03:54:15.541Z,57.8
2018-07-14T03:55:15.215Z,57.82
2018-07-14T03:56:15.267Z,57.83
2018-07-14T03:57:15.467Z,57.82
2018-07-14T03:58:15.361Z,57.84
2018-07-14T03:59:15.422Z,57.87
2018-07-14T04:00:15.351Z,57.85
2018-07-14T04:01:15.330Z,57.82
2018-07-14T04:02:15.483Z,57.83
2018-07-14T04:03:15.547Z,57.8
2018-07-14T04:04:15.423Z,57.86
2018-07-14T04:05:15.389Z,57.83
2018-07-14T04:06:15.302Z,57.85
2018-07-14T04:07:15.318Z,57.83
2018-07-14T04:08:15.437Z,57.84
2018-07-14T04:09:15.324Z,57.85
2018-07-14T04:10:15.405Z,57.82
2018-07-14T04:11:15.404Z,57.82
2018-07-14T04:12:15.303Z,57.82
2018-07-14T04:13:15.418Z,57.84
2018-07-14T04:14:15.438Z,57.77
2018-07-14T04:15:15.442Z,57.8
2018-07-14T04:16:25.286Z,57.84
2018-07-14T04:17:15.362Z,57.8
2018-07-14T04:18:15.598Z,57.81
2018-07-14T04:19:15.321Z,57.84
2018-07-14T04:20:15.479Z,57.79
2018-07-14T04:21:15.210Z,57.82
2018-07-14T04:22:15.642Z,57.8
2018-07-14T04:23:15.420Z,57.8
2018-07-14T04:24:15.305Z,57.8
2018-07-14T04:25:15.283Z,57.8
2018-07-14T04:26:15.567Z,57.81
2018-07-14T04:27:15.488Z,57.83
2018-07-14T04:28:15.427Z,57.8
2018-07-14T04:29:15.306Z,57.79
2018-07-14T04:30:15.249Z,57.8
2018-07-14T04:31:15.283Z,57.83
2018-07-14T04:32:15.428Z,57.79
2018-07-14T04:33:15.413Z,57.79
2018-07-14T04:34:15.405Z,57.77
2018-07-14T04:35:15.491Z,57.8
2018-07-14T04:36:15.283Z,57.78
2018-07-14T04:37:15.666Z,57.81
2018-07-14T04:38:15.422Z,57.84
2018-07-14T04:39:15.279Z,57.8
2018-07-14T04:40:15.377Z,57.8
2018-07-14T04:41:15.359Z,57.83
2018-07-14T04:42:15.365Z,57.8
2018-07-14T04:43:15.264Z,57.8
2018-07-14T04:44:15.448Z,57.78
2018-07-14T04:45:15.338Z,57.79
2018-07-14T04:46:15.247Z,57.76
2018-07-14T04:47:15.337Z,57.77
2018-07-14T04:48:15.262Z,57.75
2018-07-14T04:49:15.207Z,57.79
2018-07-14T04:50:15.374Z,57.74
2018-07-14T04:51:15.309Z,57.76
2018-07-14T04:52:15.418Z,57.79
2018-07-14T04:53:16.297Z,57.79
2018-07-14T04:54:15.211Z,57.8
2018-07-14T04:55:15.392Z,57.85
2018-07-14T04:56:15.383Z,57.81
2018-07-14T04:57:15.144Z,57.73
2018-07-14T04:58:15.423Z,58.11
2018-07-14T04:59:15.366Z,58.32
2018-07-14T05:00:15.288Z,58.61
2018-07-14T05:01:15.379Z,58.76
2018-07-14T05:02:15.271Z,58.85
2018-07-14T05:03:15.422Z,59.09
2018-07-14T05:04:15.327Z,59.01
2018-07-14T05:05:15.424Z,59.11
2018-07-14T05:06:15.263Z,59.16
2018-07-14T05:07:15.336Z,59.22
2018-07-14T05:08:15.380Z,59.37
2018-07-14T05:09:15.305Z,59.33
2018-07-14T05:10:15.465Z,59.25
2018-07-14T05:11:15.428Z,59.47
2018-07-14T05:12:15.299Z,59.48
2018-07-14T05:13:15.377Z,59.54
2018-07-14T05:14:15.253Z,59.67
2018-07-14T05:15:15.223Z,59.7
2018-07-14T05:16:15.360Z,59.7
2018-07-14T05:17:15.308Z,59.56
2018-07-14T05:18:15.269Z,59.43
2018-07-14T05:19:15.375Z,59.4
2018-07-14T05:20:15.263Z,59.58
2018-07-14T05:21:15.960Z,59.76
2018-07-14T05:22:15.556Z,59.82
2018-07-14T05:23:15.351Z,59.86
2018-07-14T05:24:15.185Z,60.03
2018-07-14T05:25:15.303Z,60.11
2018-07-14T05:26:15.520Z,60.18
2018-07-14T05:27:15.270Z,60.31
2018-07-14T05:28:15.391Z,60.29
2018-07-14T05:29:16.804Z,60.15
2018-07-14T05:30:15.241Z,60.27
2018-07-14T05:31:15.289Z,60.34
2018-07-14T05:32:15.469Z,60.34
2018-07-14T05:33:15.304Z,60.45
2018-07-14T05:34:15.330Z,60.29
2018-07-14T05:35:15.538Z,60.12
2018-07-14T05:36:15.351Z,60.11
2018-07-14T05:37:15.243Z,60.06
2018-07-14T05:38:15.455Z,60.21
2018-07-14T05:39:15.473Z,60.29
2018-07-14T05:40:15.303Z,60.46
2018-07-14T05:41:15.292Z,60.59
2018-07-14T05:42:15.192Z,60.71
2018-07-14T05:43:15.287Z,60.71
2018-07-14T05:44:15.583Z,60.56
2018-07-14T05:45:15.234Z,60.46
2018-07-14T05:46:15.424Z,60.51
2018-07-14T05:47:15.482Z,60.63
2018-07-14T05:48:15.231Z,60.51
2018-07-14T05:49:15.489Z,60.45
2018-07-14T05:50:15.427Z,60.52
2018-07-14T05:51:15.285Z,60.55
2018-07-14T05:52:15.383Z,60.49
2018-07-14T05:53:15.421Z,60.52
2018-07-14T05:54:15.330Z,60.48
2018-07-14T05:55:15.519Z,60.52
2018-07-14T05:56:15.205Z,60.81
2018-07-14T05:57:15.234Z,60.83
2018-07-14T05:58:15.413Z,60.94
2018-07-14T05:59:15.289Z,60.91
2018-07-14T06:00:15.254Z,60.85
2018-07-14T06:01:15.421Z,60.96
2018-07-14T06:02:15.362Z,60.92
2018-07-14T06:03:15.418Z,61.05
2018-07-14T06:04:15.191Z,60.88
2018-07-14T06:05:15.380Z,60.78
2018-07-14T06:06:15.254Z,60.74
2018-07-14T06:07:15.404Z,60.64
2018-07-14T06:08:15.526Z,60.61
2018-07-14T06:09:25.232Z,60.68
2018-07-14T06:10:15.344Z,60.67
2018-07-14T06:11:15.320Z,60.67
2018-07-14T06:12:15.244Z,60.71
2018-07-14T06:13:15.379Z,60.7
2018-07-14T06:14:15.950Z,60.71
2018-07-14T06:15:15.203Z,60.63
2018-07-14T06:16:15.606Z,60.66
2018-07-14T06:17:15.704Z,60.73
2018-07-14T06:18:15.254Z,60.63
2018-07-14T06:19:15.340Z,60.47
2018-07-14T06:20:15.404Z,60.45
2018-07-14T06:21:15.292Z,60.48
2018-07-14T06:22:15.409Z,60.41
2018-07-14T06:23:15.453Z,60.29
2018-07-14T06:24:15.218Z,60.25
2018-07-14T06:25:15.391Z,60.16
2018-07-14T06:26:15.379Z,60.04
2018-07-14T06:27:15.322Z,59.98
2018-07-14T06:28:15.342Z,59.93
2018-07-14T06:29:15.389Z,60
2018-07-14T06:30:15.476Z,59.88
2018-07-14T06:31:15.400Z,59.88
2018-07-14T06:32:15.260Z,59.82
2018-07-14T06:33:15.447Z,59.94
2018-07-14T06:34:15.255Z,59.92
2018-07-14T06:35:15.251Z,59.93
2018-07-14T06:36:15.328Z,59.91
2018-07-14T06:37:15.236Z,59.96
2018-07-14T06:38:16.009Z,59.9
2018-07-14T06:39:15.396Z,59.84
2018-07-14T06:40:15.236Z,59.81
2018-07-14T06:41:15.741Z,59.72
2018-07-14T06:42:20.166Z,59.7
2018-07-14T06:43:15.432Z,59.62
2018-07-14T06:44:15.344Z,59.55
2018-07-14T06:45:15.207Z,59.64
2018-07-14T06:46:15.515Z,59.58
2018-07-14T06:47:15.622Z,59.6
2018-07-14T06:48:15.344Z,59.58
2018-07-14T06:49:15.279Z,59.39
2018-07-14T06:50:15.561Z,59.13
2018-07-14T06:51:15.287Z,59.1
2018-07-14T06:52:15.370Z,59.01
2018-07-14T06:53:15.432Z,58.98
2018-07-14T06:54:15.879Z,58.84
2018-07-14T06:55:15.401Z,58.81
2018-07-14T06:56:15.689Z,58.8
2018-07-14T06:57:15.202Z,58.76
2018-07-14T06:58:15.318Z,58.66
2018-07-14T06:59:15.228Z,58.62
2018-07-14T07:00:15.385Z,58.47
2018-07-14T07:01:15.386Z,58.57
2018-07-14T07:02:15.243Z,58.63
2018-07-14T07:03:15.610Z,58.65
2018-07-14T07:04:15.325Z,58.65
2018-07-14T07:05:15.257Z,58.61
2018-07-14T07:06:15.372Z,58.45
2018-07-14T07:07:15.474Z,58.39
2018-07-14T07:08:15.185Z,58.44
2018-07-14T07:09:15.270Z,58.45
2018-07-14T07:10:15.385Z,58.48
2018-07-14T07:11:15.232Z,58.52
2018-07-14T07:12:15.255Z,58.51
2018-07-14T07:13:15.399Z,58.45
2018-07-14T07:14:15.380Z,58.56
2018-07-14T07:15:15.338Z,58.52
2018-07-14T07:16:15.351Z,58.51
2018-07-14T07:17:15.373Z,58.55
2018-07-14T07:18:15.303Z,58.52
2018-07-14T07:19:15.477Z,58.61
2018-07-14T07:20:15.218Z,58.61
2018-07-14T07:21:15.581Z,58.58
2018-07-14T07:22:15.223Z,58.58
2018-07-14T07:23:15.340Z,58.48
2018-07-14T07:24:15.894Z,58.33
2018-07-14T07:25:15.227Z,58.1
2018-07-14T07:26:15.382Z,58.28
2018-07-14T07:27:15.346Z,58.3
2018-07-14T07:28:15.415Z,58.12
2018-07-14T07:29:15.233Z,58.27
2018-07-14T07:30:15.188Z,58.23
2018-07-14T07:31:15.924Z,58.19
2018-07-14T07:32:15.491Z,58.12
2018-07-14T07:33:15.466Z,57.81
2018-07-14T07:34:15.403Z,57.48
2018-07-14T07:35:15.393Z,57.46
2018-07-14T07:36:15.360Z,57.57
2018-07-14T07:37:15.934Z,57.58
2018-07-14T07:38:15.357Z,57.57
2018-07-14T07:39:16.604Z,57.27
2018-07-14T07:40:15.689Z,57.45
2018-07-14T07:41:15.465Z,57.59
2018-07-14T07:42:15.780Z,57.65
2018-07-14T07:43:15.794Z,57.67
2018-07-14T07:44:15.275Z,57.81
2018-07-14T07:45:15.539Z,58.05
2018-07-14T07:46:15.258Z,58.07
2018-07-14T07:47:15.388Z,58.05
2018-07-14T07:48:15.459Z,58.17
2018-07-14T07:49:15.391Z,58.25
2018-07-14T07:50:15.239Z,58.27
2018-07-14T07:51:15.499Z,58.19
2018-07-14T07:52:15.281Z,58.15
2018-07-14T07:53:15.373Z,58.14
2018-07-14T07:54:15.263Z,58.15
2018-07-14T07:55:15.409Z,58.1
2018-07-14T07:56:15.257Z,58.11
2018-07-14T07:57:15.938Z,58.12
2018-07-14T07:58:15.277Z,58.09
2018-07-14T07:59:15.234Z,58.02
2018-07-14T08:00:15.442Z,58.07
2018-07-14T08:01:15.290Z,58.02
2018-07-14T08:02:15.378Z,58.04
2018-07-14T08:03:15.231Z,58.09
2018-07-14T08:04:15.292Z,58.14
2018-07-14T08:05:15.234Z,58.12
2018-07-14T08:06:15.427Z,58.11
2018-07-14T08:07:15.383Z,58.08
2018-07-14T08:08:15.092Z,58.08
2018-07-14T08:09:15.271Z,58.05
2018-07-14T08:10:15.409Z,58.15
2018-07-14T08:11:15.232Z,58.13
2018-07-14T08:12:15.562Z,58.15
2018-07-14T08:13:15.376Z,57.31
2018-07-14T08:14:15.517Z,57.12
2018-07-14T08:15:15.204Z,56.78
2018-07-14T08:16:47.149Z,56.99
2018-07-14T08:17:15.273Z,57.05
2018-07-14T08:18:15.239Z,57.14
2018-07-14T08:19:15.273Z,57.22
2018-07-14T08:20:15.444Z,57.33
2018-07-14T08:21:15.236Z,57.37
2018-07-14T08:22:15.311Z,57.33
2018-07-14T08:23:15.417Z,57.4
2018-07-14T08:24:15.303Z,57.43
2018-07-14T08:25:15.492Z,57.49
2018-07-14T08:26:15.214Z,57.5
2018-07-14T08:27:15.350Z,57.54
2018-07-14T08:28:15.189Z,57.58
2018-07-14T08:29:15.320Z,57.64
2018-07-14T08:30:15.169Z,57.66
2018-07-14T08:31:15.226Z,57.66
2018-07-14T08:32:15.633Z,57.7
2018-07-14T08:33:15.358Z,57.68
2018-07-14T08:34:15.249Z,57.69
2018-07-14T08:35:15.306Z,57.73
2018-07-14T08:36:15.406Z,57.74
2018-07-14T08:37:15.405Z,57.74
2018-07-14T08:38:15.308Z,57.78
2018-07-14T08:39:15.173Z,57.78
2018-07-14T08:40:15.357Z,57.83
2018-07-14T08:41:15.274Z,57.81
2018-07-14T08:42:15.205Z,57.83
2018-07-14T08:43:15.336Z,57.78
2018-07-14T08:44:15.297Z,57.85
2018-07-14T08:45:15.247Z,57.84
2018-07-14T08:46:15.280Z,57.87
2018-07-14T08:47:15.277Z,57.81
2018-07-14T08:48:15.212Z,57.85
2018-07-14T08:49:15.306Z,57.84
2018-07-14T08:50:15.363Z,57.83
2018-07-14T08:51:15.793Z,57.83
2018-07-14T08:52:15.426Z,57.88
2018-07-14T08:53:15.286Z,57.88
2018-07-14T08:54:15.464Z,57.84
2018-07-14T08:55:15.315Z,57.89
2018-07-14T08:56:15.281Z,57.88
2018-07-14T08:57:15.111Z,57.9
2018-07-14T08:58:16.096Z,57.87
2018-07-14T08:59:15.423Z,57.9
2018-07-14T09:00:15.247Z,57.89
2018-07-14T09:01:15.364Z,57.93
2018-07-14T09:02:15.140Z,57.89
2018-07-14T09:03:15.541Z,57.89
2018-07-14T09:04:15.536Z,57.9
2018-07-14T09:05:15.406Z,57.91
2018-07-14T09:06:15.142Z,57.89
2018-07-14T09:07:15.306Z,57.9
2018-07-14T09:08:15.535Z,57.9
2018-07-14T09:09:15.293Z,57.86
2018-07-14T09:10:15.248Z,57.91
2018-07-14T09:11:15.288Z,58.06
2018-07-14T09:12:15.443Z,57.99
2018-07-14T09:13:15.240Z,58.07
2018-07-14T09:14:15.318Z,58.05
2018-07-14T09:15:15.168Z,58
2018-07-14T09:16:15.287Z,58.34
2018-07-14T09:17:15.311Z,58.29
2018-07-14T09:18:15.225Z,58.39
2018-07-14T09:19:15.208Z,58.23
2018-07-14T09:20:15.309Z,58.12
2018-07-14T09:21:15.219Z,58.19
2018-07-14T09:22:15.286Z,58.12
2018-07-14T09:23:15.189Z,58.19
2018-07-14T09:24:25.296Z,58.17
2018-07-14T09:25:15.326Z,58.16
2018-07-14T09:26:15.707Z,58.18
2018-07-14T09:27:15.411Z,58.12
2018-07-14T09:28:15.247Z,58.18
2018-07-14T09:29:15.127Z,58.17
2018-07-14T09:30:15.366Z,58.18
2018-07-14T09:31:15.243Z,58.22
2018-07-14T09:32:15.612Z,58.17
2018-07-14T09:33:15.278Z,58.19
2018-07-14T09:34:15.443Z,58.25
2018-07-14T09:35:15.462Z,58.26
2018-07-14T09:36:15.296Z,58.26
2018-07-14T09:37:15.435Z,58.28
2018-07-14T09:38:25.461Z,58.32
2018-07-14T09:39:15.197Z,58.31
2018-07-14T09:40:15.251Z,58.3
2018-07-14T09:41:15.366Z,58.33
2018-07-14T09:42:15.124Z,58.47
2018-07-14T09:43:15.268Z,58.34
2018-07-14T09:44:15.324Z,58.3
2018-07-14T09:45:15.237Z,58.34
2018-07-14T09:46:15.300Z,58.36
2018-07-14T09:47:15.171Z,58.42
2018-07-14T09:48:15.133Z,58.56
2018-07-14T09:49:15.227Z,58.66
2018-07-14T09:50:15.354Z,58.64
2018-07-14T09:51:15.244Z,58.6
2018-07-14T09:52:15.351Z,58.63
2018-07-14T09:53:15.203Z,58.55
2018-07-14T09:54:15.089Z,58.51
2018-07-14T09:55:15.975Z,58.44
2018-07-14T09:56:15.647Z,58.39
2018-07-14T09:57:15.109Z,58.38
2018-07-14T09:58:15.363Z,58.44
2018-07-14T09:59:15.247Z,58.46
2018-07-14T10:00:15.383Z,58.35
2018-07-14T10:01:15.298Z,58.36
2018-07-14T10:02:15.117Z,58.38
2018-07-14T10:03:15.512Z,58.43
2018-07-14T10:04:15.146Z,58.43
2018-07-14T10:05:15.378Z,58.45
2018-07-14T10:06:16.052Z,58.4
2018-07-14T10:07:15.486Z,58.44
2018-07-14T10:08:15.136Z,58.44
2018-07-14T10:09:15.146Z,58.44
2018-07-14T10:10:15.304Z,58.52
2018-07-14T10:11:15.196Z,58.52
2018-07-14T10:12:15.404Z,58.53
2018-07-14T10:13:16.103Z,58.53
2018-07-14T10:14:15.160Z,58.54
2018-07-14T10:15:15.432Z,58.51
2018-07-14T10:16:15.268Z,58.54
2018-07-14T10:17:15.679Z,58.52
2018-07-14T10:18:15.116Z,58.51
2018-07-14T10:19:15.773Z,58.47
2018-07-14T10:20:15.309Z,58.67
2018-07-14T10:21:15.356Z,58.68
2018-07-14T10:22:15.896Z,58.64
2018-07-14T10:23:15.446Z,58.59
2018-07-14T10:24:15.357Z,58.61
2018-07-14T10:25:17.569Z,58.72
2018-07-14T10:26:15.194Z,58.56
2018-07-14T10:27:46.999Z,58.61
2018-07-14T10:28:15.242Z,58.65
2018-07-14T10:29:15.171Z,58.58
2018-07-14T10:30:15.245Z,58.74
2018-07-14T10:31:15.206Z,58.72
2018-07-14T10:32:15.222Z,58.71
2018-07-14T10:33:15.395Z,58.69
2018-07-14T10:34:15.186Z,58.87
2018-07-14T10:35:15.371Z,58.77
2018-07-14T10:36:15.191Z,58.66
2018-07-14T10:37:15.024Z,58.57
2018-07-14T10:38:15.225Z,58.68
2018-07-14T10:38:44.830Z,58.91
2018-07-14T10:39:40.027Z,58.73
2018-07-14T10:40:39.539Z,62.16
2018-07-14T10:40:56.214Z,58.95
2018-07-14T10:41:22.774Z,58.93
2018-07-14T10:44:20.404Z,60.25
2018-07-14T10:44:59.722Z,59.86
2018-07-14T10:45:21.440Z,59.18
2018-07-14T10:46:21.821Z,58.64
2018-07-14T10:47:21.491Z,58.67
2018-07-14T10:48:21.507Z,58.67
2018-07-14T10:49:21.652Z,58.63
2018-07-14T10:50:21.741Z,58.61
2018-07-14T10:51:21.733Z,58.57
2018-07-14T10:52:21.620Z,58.62
2018-07-14T10:53:21.693Z,58.56
2018-07-14T10:54:31.653Z,58.56
2018-07-14T10:55:21.714Z,58.56
2018-07-14T10:56:21.720Z,58.57
2018-07-14T10:57:21.816Z,58.57
2018-07-14T10:58:21.706Z,58.59
2018-07-14T10:59:21.596Z,58.54
2018-07-14T11:00:21.667Z,58.5
2018-07-14T11:01:21.711Z,58.52
2018-07-14T11:02:21.598Z,58.5
2018-07-14T11:03:21.664Z,58.52
2018-07-14T11:04:22.149Z,58.56
2018-07-14T11:05:21.625Z,58.6
2018-07-14T11:06:21.642Z,58.44
2018-07-14T11:07:21.689Z,58.41
2018-07-14T11:08:44.129Z,58.53
2018-07-14T11:09:44.280Z,58.52
2018-07-14T11:10:44.157Z,58.55
2018-07-14T11:11:44.128Z,58.54
2018-07-14T11:12:44.076Z,58.47
2018-07-14T11:13:44.247Z,58.46
2018-07-14T11:14:44.046Z,58.51
2018-07-14T11:15:44.097Z,58.45
2018-07-14T11:16:44.047Z,58.5
2018-07-14T11:17:44.741Z,58.46
2018-07-14T11:18:44.169Z,58.43
2018-07-14T11:19:44.328Z,58.44
2018-07-14T11:20:44.278Z,58.43
2018-07-14T11:21:44.054Z,58.4
2018-07-14T11:22:44.186Z,58.42
2018-07-14T11:23:44.858Z,58.4
2018-07-14T11:24:44.287Z,58.4
2018-07-14T11:25:44.078Z,58.4
2018-07-14T11:26:44.197Z,58.39
2018-07-14T11:27:44.202Z,58.38
2018-07-14T11:28:44.132Z,58.37
2018-07-14T11:29:44.236Z,58.36
2018-07-14T11:30:44.071Z,58.33
2018-07-14T11:31:44.200Z,58.39
2018-07-14T11:32:44.209Z,58.39
2018-07-14T11:33:44.155Z,58.33
2018-07-14T11:34:44.337Z,58.29
2018-07-14T11:35:44.223Z,58.34
2018-07-14T11:36:44.323Z,58.42
2018-07-14T11:37:45.098Z,58.48
2018-07-14T11:38:44.177Z,58.46
2018-07-14T11:39:44.287Z,58.43
2018-07-14T11:40:44.186Z,58.39
2018-07-14T11:41:44.171Z,58.45
2018-07-14T11:42:44.280Z,58.45
2018-07-14T11:43:44.378Z,58.46
2018-07-14T11:44:44.210Z,58.47
2018-07-14T11:45:44.177Z,58.44
2018-07-14T11:46:44.136Z,58.48
2018-07-14T11:47:44.613Z,58.45
2018-07-14T11:48:44.267Z,58.41
2018-07-14T11:49:44.032Z,58.4
2018-07-14T11:50:44.085Z,58.41
2018-07-14T11:51:44.215Z,58.41
2018-07-14T11:52:44.384Z,58.4
2018-07-14T11:53:44.227Z,58.41
2018-07-14T11:54:44.487Z,58.38
2018-07-14T11:55:44.210Z,58.42
2018-07-14T11:56:44.155Z,58.37
2018-07-14T11:57:44.290Z,58.37
2018-07-14T11:58:44.352Z,58.39
2018-07-14T11:59:44.109Z,58.39
2018-07-14T12:00:44.136Z,58.37
2018-07-14T12:01:44.270Z,58.35
2018-07-14T12:02:44.033Z,58.34
2018-07-14T12:03:44.396Z,58.35
2018-07-14T12:04:44.227Z,58.35
2018-07-14T12:05:44.227Z,58.33
2018-07-14T12:06:44.270Z,58.31
2018-07-14T12:07:44.317Z,58.3
2018-07-14T12:08:44.354Z,58.34
2018-07-14T12:09:44.277Z,58.3
2018-07-14T12:10:44.410Z,58.31
2018-07-14T12:11:44.091Z,58.3
2018-07-14T12:12:44.204Z,58.31
2018-07-14T12:13:44.489Z,58.3
2018-07-14T12:14:44.165Z,58.27
2018-07-14T12:15:44.345Z,58.31
2018-07-14T12:16:44.205Z,58.31
2018-07-14T12:17:44.129Z,58.27
2018-07-14T12:18:44.091Z,58.29
2018-07-14T12:19:44.069Z,58.3
2018-07-14T12:20:44.133Z,58.32
2018-07-14T12:21:44.256Z,58.29
2018-07-14T12:22:44.099Z,58.43
2018-07-14T12:23:44.209Z,58.38
2018-07-14T12:24:44.370Z,58.47
2018-07-14T12:25:44.106Z,58.46
2018-07-14T12:26:44.560Z,58.36
2018-07-14T12:27:44.050Z,58.38
2018-07-14T12:28:44.388Z,58.28
2018-07-14T12:29:44.221Z,58.28
2018-07-14T12:30:44.616Z,58.26
2018-07-14T12:31:44.349Z,58.23
2018-07-14T12:32:44.238Z,58.29
2018-07-14T12:33:44.280Z,58.39
2018-07-14T12:34:44.194Z,58.3
2018-07-14T12:35:44.310Z,58.29
2018-07-14T12:36:45.571Z,58.39
2018-07-14T12:37:44.287Z,58.47
2018-07-14T12:38:44.355Z,58.5
2018-07-14T12:39:46.365Z,58.55
2018-07-14T12:40:44.452Z,58.48
2018-07-14T12:41:44.386Z,58.43
2018-07-14T12:42:44.152Z,58.45
2018-07-14T12:43:44.159Z,58.49
2018-07-14T12:44:44.316Z,58.46
2018-07-14T12:45:44.194Z,58.44
2018-07-14T12:46:44.089Z,58.43
2018-07-14T12:47:44.238Z,58.46
2018-07-14T12:48:44.406Z,58.44
2018-07-14T12:49:44.490Z,58.45
2018-07-14T12:50:44.458Z,58.46
2018-07-14T12:51:44.143Z,58.37
2018-07-14T12:52:44.174Z,58.29
2018-07-14T12:53:44.791Z,58.38
2018-07-14T12:54:44.289Z,58.37